Terminal Aerodrome Forecast
Issued by NWS

Home | Current Version | Previous Version | Text Only | Print | Product List | Glossary On
Versions: 1 2 3 4 5 6 7 8 9 10 11 12 13 14 15 16 17 18 19 20 21 22 23 24
000
FTUS43 KDMX 290520
TAFMCW
TAF
KMCW 290520Z 2906/3006 17016G24KT P6SM SKC
     FM291000 18022G30KT P6SM VCSH SCT015 BKN040
     FM291300 23024G32KT P6SM SCT020 BKN050
     FM291700 31030G38KT P6SM VCSH BKN040
     FM300000 30018KT P6SM SCT040
     FM300400 30010KT P6SM SCT200=

USA.gov is the U.S. government's official web portal to all federal, state and local government web resources and services.